Time;durP1;ratioP1;P1;durP2;ratioP2;P2;SDS_P1;SDS_P2;PMS_P1;PMS_P2;Temp;Humidity;BMP_temperature;BMP_pressure;BME280_temperature;BME280_humidity;BME280_pressure;Samples;Min_cycle;Max_cycle;Signal;HPM_P1;HPM_P2
2023/08/19 00:00:14;;;;;;;0.00;0.00;;;;;;;19.95;100.00;101066.03;5059026;28;20056;-48
2023/08/19 00:02:40;;;;;;;0.00;0.00;;;;;;;20.05;100.00;101066.84;5058488;28;20464;-50
2023/08/19 00:05:06;;;;;;;0.10;0.10;;;;;;;19.94;100.00;101053.84;5059307;28;20051;-48
2023/08/19 00:07:31;;;;;;;0.00;0.00;;;;;;;19.92;100.00;101049.50;5059050;28;20107;-50
2023/08/19 00:09:56;;;;;;;0.00;0.00;;;;;;;20.06;100.00;101042.41;5058610;28;20361;-50
2023/08/19 00:12:22;;;;;;;0.00;0.00;;;;;;;19.93;100.00;101046.00;5058907;28;20032;-48
2023/08/19 00:14:49;;;;;;;0.00;0.00;;;;;;;19.86;100.00;101050.41;5059310;28;20021;-50
2023/08/19 00:17:16;;;;;;;0.00;0.00;;;;;;;19.85;100.00;101046.06;5058170;28;20017;-47
2023/08/19 00:19:41;;;;;;;0.10;0.10;;;;;;;19.74;100.00;101046.94;5059236;28;20025;-49
2023/08/19 00:22:06;;;;;;;0.00;0.00;;;;;;;19.80;100.00;101045.19;5059049;28;20395;-49
2023/08/19 00:24:32;;;;;;;0.00;0.00;;;;;;;19.80;100.00;101050.41;5058169;28;20067;-50
2023/08/19 00:26:59;;;;;;;0.10;0.00;;;;;;;19.88;100.00;101049.53;5059350;28;20036;-50
2023/08/19 00:29:25;;;;;;;0.00;0.00;;;;;;;19.83;100.00;101050.41;5058778;28;20021;-50
2023/08/19 00:31:50;;;;;;;0.03;0.03;;;;;;;19.90;100.00;101047.75;5058463;28;20028;-49
2023/08/19 00:34:16;;;;;;;0.00;0.00;;;;;;;19.88;100.00;101048.63;5058803;28;20032;-46
2023/08/19 00:36:41;;;;;;;0.00;0.00;;;;;;;19.81;100.00;101052.16;5058655;28;20415;-46
2023/08/19 00:39:06;;;;;;;0.10;0.10;;;;;;;19.80;100.00;101046.03;5059161;28;20036;-47
2023/08/19 00:41:33;;;;;;;0.00;0.00;;;;;;;19.77;100.00;101046.06;5058736;28;20060;-48
2023/08/19 00:43:58;;;;;;;0.10;0.10;;;;;;;19.75;100.00;101053.03;5058415;28;20025;-49
2023/08/19 00:46:24;;;;;;;0.00;0.00;;;;;;;19.68;100.00;101057.44;5058765;28;20029;-49
2023/08/19 00:48:50;;;;;;;0.00;0.00;;;;;;;19.60;100.00;101051.38;5059010;28;20029;-48
2023/08/19 00:51:17;;;;;;;0.00;0.00;;;;;;;19.64;100.00;101050.47;5057814;28;20021;-48
2023/08/19 00:53:43;;;;;;;0.05;0.05;;;;;;;19.60;100.00;101053.09;5059138;28;20041;-48
2023/08/19 00:56:08;;;;;;;0.08;0.08;;;;;;;19.52;100.00;101045.28;5058974;28;20449;-46
2023/08/19 00:58:34;;;;;;;0.00;0.00;;;;;;;19.55;100.00;101048.78;5058010;28;20108;-47
2023/08/19 01:00:59;;;;;;;0.00;0.00;;;;;;;19.50;100.00;101044.44;5058854;28;20349;-49
2023/08/19 01:03:24;;;;;;;0.00;0.00;;;;;;;19.45;100.00;101041.84;5056620;28;20119;-47
2023/08/19 01:06:02;;;;;;;0.00;0.00;;;;;;;19.45;100.00;101046.22;5054830;28;20100;-48
2023/08/19 01:08:44;;;;;;;0.00;0.00;;;;;;;19.51;100.00;101043.56;5055364;28;20476;-49
2023/08/19 01:11:36;;;;;;;0.00;0.00;;;;;;;19.44;100.00;101036.63;5055724;28;20021;-46
2023/08/19 01:14:11;;;;;;;0.00;0.00;;;;;;;19.42;100.00;101039.25;5054815;28;20029;-46
2023/08/19 01:16:40;;;;;;;0.00;0.00;;;;;;;19.42;100.00;101037.50;5055828;28;20146;-52
2023/08/19 01:19:09;;;;;;;0.08;0.08;;;;;;;19.38;100.00;101043.63;5054586;28;20472;-49
2023/08/19 01:21:35;;;;;;;0.00;0.00;;;;;;;19.38;100.00;101027.94;5055133;28;20036;-49
2023/08/19 01:24:05;;;;;;;0.00;0.00;;;;;;;19.39;100.00;101032.28;5055388;28;20021;-49
2023/08/19 01:26:30;;;;;;;0.10;0.10;;;;;;;19.38;100.00;101032.28;5053967;28;20456;-49
2023/08/19 01:28:56;;;;;;;0.00;0.00;;;;;;;19.41;100.00;101027.91;5055197;28;20491;-51
2023/08/19 01:31:21;;;;;;;0.10;0.10;;;;;;;19.45;100.00;101025.31;5054739;28;20036;-49
2023/08/19 01:33:46;;;;;;;0.00;0.00;;;;;;;19.48;100.00;101017.44;5054293;28;20029;-48
2023/08/19 01:36:26;;;;;;;0.00;0.00;;;;;;;19.48;100.00;101014.81;5054894;28;20067;-48
2023/08/19 01:39:05;;;;;;;0.00;0.00;;;;;;;19.51;100.00;101010.47;5055122;28;20078;-48
2023/08/19 01:41:31;;;;;;;0.00;0.00;;;;;;;19.51;100.00;101007.84;5053768;28;20090;-49
2023/08/19 01:43:58;;;;;;;0.10;0.10;;;;;;;19.52;100.00;101011.31;5055172;28;20029;-47
2023/08/19 01:46:24;;;;;;;0.00;0.00;;;;;;;19.58;100.00;101004.31;5054694;28;20503;-49
2023/08/19 01:48:49;;;;;;;0.00;0.00;;;;;;;19.62;100.00;101004.31;5053987;28;20111;-49
2023/08/19 01:51:15;;;;;;;0.03;0.03;;;;;;;19.61;100.00;100998.19;5054411;28;20112;-49
2023/08/19 01:53:40;;;;;;;0.00;0.00;;;;;;;19.62;100.00;101002.53;5054724;28;20154;-48
2023/08/19 01:56:06;;;;;;;0.00;0.00;;;;;;;19.64;100.00;100995.56;5053776;28;20373;-49
2023/08/19 01:58:31;;;;;;;0.00;0.00;;;;;;;19.71;100.00;100994.66;5054268;28;20037;-50
2023/08/19 02:00:56;;;;;;;0.00;0.00;;;;;;;19.75;100.00;101000.72;5054715;28;20036;-50
2023/08/19 02:03:22;;;;;;;0.00;0.00;;;;;;;19.70;100.00;101007.72;5053548;28;20028;-49
2023/08/19 02:05:47;;;;;;;0.00;0.00;;;;;;;19.82;100.00;101001.59;5054548;28;20072;-49
2023/08/19 02:08:12;;;;;;;0.00;0.00;;;;;;;19.84;100.00;100994.63;5053506;28;20110;-49
2023/08/19 02:10:40;;;;;;;0.00;0.00;;;;;;;19.84;100.00;101000.69;5054279;28;20391;-49
2023/08/19 02:13:05;;;;;;;0.05;0.05;;;;;;;19.79;100.00;100991.97;5054335;28;20544;-48
2023/08/19 02:15:30;;;;;;;0.00;0.00;;;;;;;19.84;100.00;100995.47;5052220;28;21142;-50
2023/08/19 02:17:56;;;;;;;0.00;0.00;;;;;;;19.84;100.00;100997.22;5054499;28;20031;-49
2023/08/19 02:20:21;;;;;;;0.03;0.03;;;;;;;19.84;100.00;100994.63;5054085;28;20017;-50
2023/08/19 02:22:46;;;;;;;0.00;0.00;;;;;;;19.88;100.00;100986.75;5053448;28;20365;-49
2023/08/19 02:25:11;;;;;;;0.00;0.00;;;;;;;19.90;100.00;100994.59;5053587;28;20389;-45
2023/08/19 02:27:40;;;;;;;0.00;0.00;;;;;;;19.85;100.00;100980.66;5054226;28;20037;-50
2023/08/19 02:30:05;;;;;;;0.00;0.00;;;;;;;19.87;100.00;100986.72;5053309;28;20025;-47
2023/08/19 02:32:31;;;;;;;0.00;0.00;;;;;;;19.84;100.00;100982.38;5053750;28;20544;-48
2023/08/19 02:34:56;;;;;;;0.00;0.00;;;;;;;19.84;100.00;100981.53;5053931;28;20029;-49
2023/08/19 02:37:21;;;;;;;0.00;0.00;;;;;;;19.87;100.00;100973.66;5052930;28;20025;-48
2023/08/19 02:39:47;;;;;;;0.00;0.00;;;;;;;19.89;100.00;100975.38;5053827;28;20443;-50
2023/08/19 02:42:15;;;;;;;0.00;0.00;;;;;;;19.89;100.00;100971.91;5053837;28;20021;-49
2023/08/19 02:44:41;;;;;;;0.00;0.00;;;;;;;19.88;100.00;100973.66;5053072;28;20109;-49
2023/08/19 02:47:07;;;;;;;0.00;0.00;;;;;;;19.92;100.00;100966.66;5053624;28;20455;-48
2023/08/19 02:49:32;;;;;;;0.00;0.00;;;;;;;19.90;100.00;100965.81;5053258;28;20107;-47
2023/08/19 02:51:57;;;;;;;0.00;0.00;;;;;;;19.87;100.00;100971.03;5052824;28;20037;-47
2023/08/19 02:54:23;;;;;;;0.00;0.00;;;;;;;19.89;100.00;100962.31;5053131;28;20029;-50
2023/08/19 02:56:48;;;;;;;0.00;0.00;;;;;;;19.94;100.00;100964.03;5053734;28;20104;-47
2023/08/19 02:59:14;;;;;;;0.00;0.00;;;;;;;19.92;100.00;100965.78;5052549;28;20025;-49
2023/08/19 03:01:39;;;;;;;0.00;0.00;;;;;;;19.91;100.00;100975.41;5053538;28;20024;-49
2023/08/19 03:04:05;;;;;;;0.05;0.05;;;;;;;19.97;100.00;100969.25;5053355;28;20033;-50
2023/08/19 03:06:32;;;;;;;0.10;0.10;;;;;;;19.98;100.00;100968.38;5052321;28;20033;-46
2023/08/19 03:08:57;;;;;;;;;;;;;;;20.06;100.00;100964.81;5053645;28;20074;-50
2023/08/19 03:11:23;;;;;;;0.10;0.10;;;;;;;19.98;100.00;100966.59;5052926;28;19916;-50
2023/08/19 03:13:48;;;;;;;0.00;0.00;;;;;;;19.98;100.00;100966.59;5052371;28;20340;-48
2023/08/19 03:16:14;;;;;;;0.00;0.00;;;;;;;19.99;100.00;100965.72;5052933;28;20104;-49
2023/08/19 03:18:40;;;;;;;0.00;0.00;;;;;;;19.97;100.00;100967.47;5052434;28;20021;-50
2023/08/19 03:21:05;;;;;;;0.00;0.00;;;;;;;19.98;100.00;100966.59;5053073;28;20037;-49
2023/08/19 03:23:31;;;;;;;0.00;0.00;;;;;;;19.96;100.00;100960.53;5052989;28;20218;-50
2023/08/19 03:25:57;;;;;;;0.00;0.00;;;;;;;20.00;100.00;100958.75;5051977;28;20106;-49
2023/08/19 03:28:23;;;;;;;0.10;0.10;;;;;;;19.94;100.00;100951.81;5052684;28;20029;-50
2023/08/19 03:30:48;;;;;;;0.00;0.00;;;;;;;19.89;100.00;100945.75;5052862;28;20036;-50
2023/08/19 03:33:13;;;;;;;0.10;0.10;;;;;;;19.92;100.00;100950.94;5051731;28;20155;-50
2023/08/19 03:35:39;;;;;;;0.00;0.00;;;;;;;19.97;100.00;100964.88;5052929;28;20040;-50
2023/08/19 03:38:04;;;;;;;0.00;0.00;;;;;;;19.93;100.00;100960.53;5052761;28;20025;-49
2023/08/19 03:40:29;;;;;;;0.00;0.00;;;;;;;19.96;100.00;100959.66;5051962;28;20055;-49
2023/08/19 03:42:55;;;;;;;0.00;0.00;;;;;;;19.98;100.00;100963.13;5053005;28;20052;-48
2023/08/19 03:45:20;;;;;;;0.00;0.00;;;;;;;19.98;100.00;100961.38;5052531;28;20029;-48
2023/08/19 03:47:46;;;;;;;0.00;0.00;;;;;;;20.04;100.00;100963.09;5052060;28;20031;-50
2023/08/19 03:50:12;;;;;;;0.00;0.00;;;;;;;20.04;100.00;100970.94;5052530;28;20028;-46
2023/08/19 03:52:37;;;;;;;0.00;0.00;;;;;;;20.00;100.00;100970.09;5052742;28;20033;-50
2023/08/19 03:55:03;;;;;;;0.00;0.00;;;;;;;20.03;100.00;100970.06;5051884;28;20031;-50
2023/08/19 03:57:28;;;;;;;0.00;0.00;;;;;;;19.94;100.00;100967.50;5052890;28;20460;-50
2023/08/19 03:59:53;;;;;;;0.00;0.00;;;;;;;19.95;100.00;100956.19;5053081;28;20021;-50
2023/08/19 04:02:19;;;;;;;0.00;0.00;;;;;;;19.99;100.00;100960.50;5051605;28;20033;-48
2023/08/19 04:05:01;;;;;;;0.00;0.00;;;;;;;19.96;100.00;100957.94;5052482;28;20025;-49
2023/08/19 04:07:27;;;;;;;0.10;0.10;;;;;;;20.04;100.00;100966.56;5052221;28;20377;-50
2023/08/19 04:09:55;;;;;;;0.00;0.00;;;;;;;20.10;100.00;100968.25;5051887;28;20468;-50
2023/08/19 04:12:21;;;;;;;0.00;0.00;;;;;;;20.15;100.00;100974.31;5052506;28;20032;-49
2023/08/19 04:14:46;;;;;;;0.00;0.00;;;;;;;20.12;100.00;100965.66;5051938;28;20024;-50
2023/08/19 04:17:12;;;;;;;0.00;0.00;;;;;;;20.26;100.00;100970.75;5052205;28;20029;-47
2023/08/19 04:19:38;;;;;;;0.10;0.10;;;;;;;20.12;100.00;100968.28;5052430;28;20044;-48
2023/08/19 04:22:03;;;;;;;0.00;0.00;;;;;;;20.21;100.00;100962.94;5051872;28;20528;-50
2023/08/19 04:24:28;;;;;;;0.00;0.00;;;;;;;20.18;100.00;100962.97;5052158;28;20028;-48
2023/08/19 04:26:54;;;;;;;0.00;0.00;;;;;;;20.18;100.00;100973.44;5052479;28;20104;-48
2023/08/19 04:29:19;;;;;;;0.00;0.00;;;;;;;20.17;100.00;100979.56;5051208;28;20028;-44
2023/08/19 04:31:44;;;;;;;0.00;0.00;;;;;;;20.15;100.00;100973.47;5052326;28;20037;-49
2023/08/19 04:34:09;;;;;;;0.00;0.00;;;;;;;20.13;100.00;100973.47;5052134;28;20070;-50
2023/08/19 04:36:35;;;;;;;0.00;0.00;;;;;;;20.17;100.00;100975.19;5051084;28;20090;-49
2023/08/19 04:39:00;;;;;;;0.00;0.00;;;;;;;20.18;100.00;100973.44;5053476;28;20028;-50
2023/08/19 04:41:25;;;;;;;0.00;0.00;;;;;;;20.32;100.00;100981.16;5055883;28;20021;-48
2023/08/19 04:43:51;;;;;;;0.00;0.00;;;;;;;20.40;100.00;100982.00;5055303;28;20399;-49
2023/08/19 04:46:16;;;;;;;0.00;0.00;;;;;;;20.38;100.00;100981.97;5055706;28;20470;-45
2023/08/19 04:48:41;;;;;;;0.00;0.00;;;;;;;20.46;100.00;100988.91;5055929;28;20383;-47
2023/08/19 04:51:07;;;;;;;0.00;0.00;;;;;;;20.46;100.00;100988.91;5055181;28;20033;-44
2023/08/19 04:53:32;;;;;;;0.00;0.00;;;;;;;20.48;100.00;100984.53;5056037;28;20025;-45
2023/08/19 04:56:02;;;;;;;0.00;0.00;;;;;;;20.53;100.00;100980.13;5055919;28;20104;-45
2023/08/19 04:58:28;;;;;;;0.00;0.00;;;;;;;20.51;100.00;100984.50;5054582;28;20384;-49
2023/08/19 05:00:53;;;;;;;0.00;0.00;;;;;;;20.49;100.00;100984.50;5055805;28;20029;-46
2023/08/19 05:03:18;;;;;;;0.00;0.00;;;;;;;20.53;100.00;100980.97;5055293;28;20033;-45
2023/08/19 05:05:44;;;;;;;0.00;0.00;;;;;;;20.50;100.00;100975.78;5055015;28;20029;-48
2023/08/19 05:08:10;;;;;;;0.10;0.10;;;;;;;20.57;100.00;100968.72;5055736;28;20028;-49
2023/08/19 05:10:36;;;;;;;0.00;0.00;;;;;;;20.63;100.00;100968.69;5055233;28;20472;-45
2023/08/19 05:13:01;;;;;;;0.00;0.00;;;;;;;20.76;100.00;100981.66;5054609;28;20094;-44
2023/08/19 05:15:27;;;;;;;0.00;0.00;;;;;;;20.75;100.00;100980.81;5055222;28;20017;-50
2023/08/19 05:17:52;;;;;;;0.00;0.00;;;;;;;20.79;100.00;100986.88;5055457;28;20032;-46
2023/08/19 05:20:17;;;;;;;0.00;0.00;;;;;;;20.84;100.00;100995.56;5054185;28;20021;-46
2023/08/19 05:22:43;;;;;;;0.00;0.00;;;;;;;20.90;100.00;100990.22;5055514;28;20052;-49
2023/08/19 05:25:08;;;;;;;0.00;0.00;;;;;;;21.01;100.00;100983.13;5054141;28;20056;-50
2023/08/19 05:27:34;;;;;;;0.00;0.00;;;;;;;21.03;100.00;100986.59;5054828;28;20013;-44
2023/08/19 05:29:59;;;;;;;0.00;0.00;;;;;;;21.10;100.00;100997.88;5055183;28;20036;-43
2023/08/19 05:32:24;;;;;;;0.00;0.00;;;;;;;21.16;100.00;100989.94;5054070;28;20036;-48
2023/08/19 05:34:50;;;;;;;0.00;0.00;;;;;;;21.16;100.00;100992.56;5055226;28;20033;-48
2023/08/19 05:37:15;;;;;;;0.00;0.00;;;;;;;21.22;100.00;100996.84;5054894;28;20033;-45
2023/08/19 05:39:40;;;;;;;0.05;0.00;;;;;;;21.18;100.00;101008.25;5054351;28;20036;-45
2023/08/19 05:42:06;;;;;;;0.00;0.00;;;;;;;21.17;100.00;100998.66;5054955;28;20036;-44
2023/08/19 05:44:31;;;;;;;0.00;0.00;;;;;;;21.21;100.00;100995.13;5054637;28;20553;-47
2023/08/19 05:46:57;;;;;;;0.00;0.00;;;;;;;21.27;100.00;101004.69;5054057;28;20495;-50
2023/08/19 05:49:22;;;;;;;0.00;0.00;;;;;;;21.25;100.00;101004.66;5054086;28;20455;-47
2023/08/19 05:51:48;;;;;;;0.00;0.00;;;;;;;21.23;100.00;101001.22;5054829;28;20028;-49
2023/08/19 05:54:13;;;;;;;0.00;0.00;;;;;;;21.28;100.00;101004.66;5053794;28;20020;-50
2023/08/19 05:56:39;;;;;;;0.10;0.10;;;;;;;21.30;100.00;101004.63;5054717;28;20032;-49
2023/08/19 05:59:04;;;;;;;0.00;0.00;;;;;;;21.29;100.00;100993.28;5054501;28;20028;-47
2023/08/19 06:01:29;;;;;;;0.00;0.00;;;;;;;21.42;100.00;100998.34;5053412;28;20029;-45
2023/08/19 06:03:55;;;;;;;0.00;0.00;;;;;;;21.43;100.00;100990.47;5054431;28;20087;-45
2023/08/19 06:06:20;;;;;;;0.00;0.00;;;;;;;21.51;100.00;101012.22;5054405;28;20052;-48
2023/08/19 06:08:45;;;;;;;0.00;0.00;;;;;;;21.57;100.00;101013.91;5053739;28;20369;-48
2023/08/19 06:11:11;;;;;;;0.00;0.00;;;;;;;21.67;100.00;101015.53;5054214;28;20028;-48
2023/08/19 06:13:37;;;;;;;0.00;0.00;;;;;;;21.71;100.00;101017.22;5054403;28;20032;-48
2023/08/19 06:16:04;;;;;;;0.00;0.00;;;;;;;21.84;100.00;101025.78;5053475;28;20021;-49
2023/08/19 06:18:33;;;;;;;0.00;0.00;;;;;;;21.94;100.00;101018.66;5053902;28;20029;-48
2023/08/19 06:20:59;;;;;;;0.00;0.00;;;;;;;22.13;100.00;101010.47;5054350;28;20031;-48
2023/08/19 06:23:24;;;;;;;0.00;0.00;;;;;;;22.21;100.00;101027.00;5053236;28;20025;-45
2023/08/19 06:25:52;;;;;;;0.00;0.00;;;;;;;22.28;100.00;101027.75;5054256;28;20049;-49
2023/08/19 06:28:18;;;;;;;0.00;0.00;;;;;;;22.34;100.00;101025.88;5053678;28;20036;-49
2023/08/19 06:30:45;;;;;;;0.00;0.00;;;;;;;22.39;100.00;101030.22;5053156;28;20036;-45
2023/08/19 06:33:11;;;;;;;0.00;0.00;;;;;;;22.42;100.00;101038.06;5053900;28;20029;-45
2023/08/19 06:35:37;;;;;;;0.00;0.00;;;;;;;22.46;100.00;101040.59;5052984;28;20032;-50
2023/08/19 06:38:15;;;;;;;0.00;0.00;;;;;;;22.51;100.00;101038.75;5053902;28;20021;-50
2023/08/19 06:40:54;;;;;;;0.00;0.00;;;;;;;22.61;100.00;101057.88;5053751;28;20108;-44
2023/08/19 06:43:21;;;;;;;0.00;0.00;;;;;;;22.72;100.00;101059.44;5052703;28;20025;-44
2023/08/19 06:45:47;;;;;;;0.00;0.00;;;;;;;22.81;100.00;101054.00;5053891;28;20021;-49
2023/08/19 06:48:15;;;;;;;0.00;0.00;;;;;;;22.96;100.00;101053.72;5053536;28;20106;-46
2023/08/19 06:50:40;;;;;;;0.00;0.00;;;;;;;23.06;100.00;101064.97;5052893;28;20025;-45
2023/08/19 06:53:09;;;;;;;0.00;0.00;;;;;;;23.09;100.00;101069.28;5053624;28;20025;-50
2023/08/19 06:55:39;;;;;;;0.00;0.00;;;;;;;23.15;100.00;101069.19;5053311;28;20033;-47
2023/08/19 06:58:10;;;;;;;0.00;0.00;;;;;;;23.16;100.00;101065.66;5052654;28;20021;-51
2023/08/19 07:00:37;;;;;;;0.00;0.00;;;;;;;23.19;100.00;101070.88;5053086;28;20104;-44
2023/08/19 07:03:04;;;;;;;0.00;0.00;;;;;;;23.17;100.00;101076.13;5052913;28;20108;-47
2023/08/19 07:05:30;;;;;;;;;;;;;;;23.30;100.00;101074.13;5052580;28;20029;-50
2023/08/19 07:07:57;;;;;;;0.00;0.00;;;;;;;23.20;100.00;101075.22;5053377;28;19974;-48
2023/08/19 07:10:23;;;;;;;0.00;0.00;;;;;;;23.16;100.00;101071.81;5052990;28;20028;-50
2023/08/19 07:12:49;;;;;;;0.00;0.00;;;;;;;23.14;100.00;101073.59;5052594;28;20035;-45
2023/08/19 07:15:15;;;;;;;0.00;0.00;;;;;;;23.16;100.00;101073.53;5053109;28;20364;-51
2023/08/19 07:17:45;;;;;;;0.00;0.00;;;;;;;23.25;100.00;101076.00;5052357;28;20443;-50
2023/08/19 07:20:22;;;;;;;0.00;0.00;;;;;;;23.37;100.00;101081.91;5053183;28;20032;-46
2023/08/19 07:22:48;;;;;;;;;;;;;;;23.46;100.00;101073.81;5053466;28;20031;-50
2023/08/19 07:25:14;;;;;;;0.00;0.00;;;;;;;23.65;100.00;101069.94;5051291;28;20291;-50
2023/08/19 07:27:42;;;;;;;0.00;0.00;;;;;;;23.93;100.00;101077.25;5049712;28;20468;-50
2023/08/19 07:30:08;;;;;;;0.00;0.00;;;;;;;24.23;100.00;101079.22;5058474;28;20074;-50
2023/08/19 07:32:35;;;;;;;0.00;0.00;;;;;;;24.51;100.00;101089.94;5061742;28;20103;-45
2023/08/19 07:35:01;;;;;;;0.00;0.00;;;;;;;24.75;100.00;101087.63;5050437;28;20025;-47
2023/08/19 07:37:26;;;;;;;0.00;0.00;;;;;;;24.82;100.00;101091.84;5051374;28;20358;-45
2023/08/19 07:39:55;;;;;;;0.00;0.00;;;;;;;24.90;100.00;101083.72;5051895;28;20442;-50
2023/08/19 07:42:20;;;;;;;0.00;0.00;;;;;;;25.04;100.00;101112.38;5052592;28;20082;-50
2023/08/19 07:44:46;;;;;;;0.00;0.00;;;;;;;25.14;100.00;101108.56;5052971;28;20025;-46
2023/08/19 07:47:11;;;;;;;0.00;0.00;;;;;;;25.20;100.00;101113.66;5051805;28;20472;-45
2023/08/19 07:49:38;;;;;;;0.00;0.00;;;;;;;25.34;100.00;101125.63;5052574;28;20441;-46
2023/08/19 07:52:04;;;;;;;0.00;0.00;;;;;;;25.44;100.00;101119.22;5052627;28;20025;-50
2023/08/19 07:54:29;;;;;;;0.00;0.00;;;;;;;25.47;100.00;101116.47;5051521;28;20485;-46
2023/08/19 07:56:57;;;;;;;0.00;0.00;;;;;;;25.59;100.00;101118.78;5052878;28;20021;-45
2023/08/19 07:59:24;;;;;;;0.00;0.00;;;;;;;25.56;100.00;101123.28;5052310;28;20586;-50
2023/08/19 08:01:50;;;;;;;0.00;0.00;;;;;;;25.49;100.00;101130.50;5051966;28;20025;-51
2023/08/19 08:04:15;;;;;;;0.00;0.00;;;;;;;25.42;100.00;101135.09;5052356;28;20027;-51
2023/08/19 08:06:40;;;;;;;0.00;0.00;;;;;;;25.35;100.00;101132.63;5052507;28;20021;-50
2023/08/19 08:09:06;;;;;;;0.00;0.00;;;;;;;25.26;100.00;101115.28;5051949;28;20108;-46
2023/08/19 08:11:31;;;;;;;0.00;0.00;;;;;;;25.52;100.00;101108.44;5052261;28;20107;-51
2023/08/19 08:13:56;;;;;;;0.00;0.00;;;;;;;25.55;100.00;101111.88;5054672;28;20376;-51
2023/08/19 08:16:22;;;;;;;0.00;0.00;;;;;;;25.54;100.00;101125.97;5056117;28;20017;-52
2023/08/19 08:18:47;;;;;;;0.00;0.00;;;;;;;25.55;100.00;101132.97;5056432;28;20033;-51
2023/08/19 08:21:14;;;;;;;0.00;0.00;;;;;;;25.45;100.00;101148.19;5055410;28;20459;-48
2023/08/19 08:23:40;;;;;;;0.00;0.00;;;;;;;25.33;100.00;101135.28;5056281;28;20440;-51
2023/08/19 08:26:05;;;;;;;0.00;0.00;;;;;;;25.31;100.00;101126.56;5056183;28;20073;-52
2023/08/19 08:28:30;;;;;;;0.00;0.00;;;;;;;25.23;100.00;101139.97;5055219;28;20423;-49
2023/08/19 08:30:56;;;;;;;0.00;0.00;;;;;;;25.21;100.00;101147.03;5056282;28;20111;-47
2023/08/19 08:33:22;;;;;;;0.00;0.00;;;;;;;25.23;100.00;101150.53;5056026;28;20029;-51
2023/08/19 08:35:47;;;;;;;0.00;0.00;;;;;;;25.22;100.00;101159.34;5055392;28;20423;-52
2023/08/19 08:38:13;;;;;;;0.00;0.00;;;;;;;25.21;100.00;101168.16;5055757;28;20522;-50
2023/08/19 08:40:39;;;;;;;0.00;0.00;;;;;;;25.07;100.00;101167.66;5055985;28;20044;-52
2023/08/19 08:43:06;;;;;;;0.00;0.00;;;;;;;25.02;100.00;101151.09;5055345;28;20036;-47
2023/08/19 08:45:32;;;;;;;0.00;0.00;;;;;;;24.94;100.00;101190.81;5055739;28;20029;-52
2023/08/19 08:47:59;;;;;;;0.00;0.00;;;;;;;24.90;100.00;101174.22;5056276;28;20500;-52
2023/08/19 08:50:25;;;;;;;;;;;;;;;25.05;100.00;101187.91;5055294;28;20067;-51
2023/08/19 08:52:51;;;;;;;0.00;0.00;;;;;;;24.97;100.00;101185.47;5055819;28;19958;-52
2023/08/19 08:55:16;;;;;;;0.00;0.00;;;;;;;24.87;100.00;101184.84;5055706;28;20441;-51
2023/08/19 08:57:42;;;;;;;0.00;0.00;;;;;;;24.87;100.00;101183.97;5055059;28;20029;-52
2023/08/19 09:00:11;;;;;;;0.00;0.00;;;;;;;24.88;100.00;101185.69;5055816;28;20029;-48
2023/08/19 09:02:38;;;;;;;0.00;0.00;;;;;;;24.88;100.00;101197.13;5055754;28;20048;-51
2023/08/19 09:05:05;;;;;;;0.00;0.00;;;;;;;24.83;100.00;101204.28;5054804;28;20029;-52
2023/08/19 09:07:36;;;;;;;0.00;0.00;;;;;;;24.89;100.00;101214.66;5055528;28;20030;-47
2023/08/19 09:10:02;;;;;;;0.00;0.00;;;;;;;24.89;100.00;101212.03;5055747;28;20074;-52
2023/08/19 09:12:31;;;;;;;0.00;0.00;;;;;;;24.95;100.00;101219.78;5054648;28;20025;-47
2023/08/19 09:15:02;;;;;;;0.08;0.00;;;;;;;25.01;100.00;101223.19;5055447;28;20357;-52
2023/08/19 09:17:29;;;;;;;0.00;0.00;;;;;;;25.11;100.00;101222.03;5054372;28;20455;-52
2023/08/19 09:19:56;;;;;;;0.00;0.00;;;;;;;25.22;100.00;101220.00;5055545;28;20033;-51
2023/08/19 09:22:22;;;;;;;0.00;0.00;;;;;;;25.34;100.00;101231.16;5054987;28;20388;-47
2023/08/19 09:24:48;;;;;;;0.00;0.00;;;;;;;25.56;100.00;101231.47;5053917;28;20074;-52
2023/08/19 09:27:18;;;;;;;0.00;0.00;;;;;;;25.80;100.00;101229.94;5055061;28;20438;-52
2023/08/19 09:29:50;;;;;;;0.00;0.00;;;;;;;26.00;100.00;101241.72;5055112;28;20032;-52
2023/08/19 09:32:16;;;;;;;0.00;0.00;;;;;;;25.93;100.00;101241.88;5054015;28;20033;-46
2023/08/19 09:34:41;;;;;;;0.00;0.00;;;;;;;26.23;100.00;101243.72;5055201;28;20029;-50
2023/08/19 09:37:08;;;;;;;0.00;0.00;;;;;;;26.34;100.00;101253.94;5055288;28;20487;-52
2023/08/19 09:39:34;;;;;;;0.00;0.00;;;;;;;26.57;100.00;101251.50;5054166;28;20063;-51
2023/08/19 09:41:59;;;;;;;0.00;0.00;;;;;;;26.59;100.00;101247.00;5054930;28;20480;-47
2023/08/19 09:44:29;;;;;;;0.00;0.00;;;;;;;26.65;100.00;101266.22;5054631;28;20021;-52
2023/08/19 09:46:55;;;;;;;0.00;0.00;;;;;;;26.78;100.00;101260.53;5054024;28;20052;-51
2023/08/19 09:49:21;;;;;;;0.00;0.00;;;;;;;26.99;99.10;101262.56;5054485;28;20057;-50
2023/08/19 09:51:54;;;;;;;0.00;0.00;;;;;;;26.82;97.99;101263.97;5063172;28;20490;-51
2023/08/19 09:54:19;;;;;;;0.00;0.00;;;;;;;26.79;99.19;101269.31;5060273;28;20757;-47
2023/08/19 09:56:52;;;;;;;0.00;0.00;;;;;;;26.97;99.19;101283.75;5070902;28;20037;-52
2023/08/19 09:59:18;;;;;;;0.00;0.00;;;;;;;26.97;96.89;101282.91;5042963;28;20028;-50
2023/08/19 10:01:44;;;;;;;0.00;0.00;;;;;;;26.85;96.71;101290.28;5065283;28;20021;-51
2023/08/19 10:04:09;;;;;;;0.00;0.00;;;;;;;26.95;97.59;101289.09;5054304;28;20047;-50
2023/08/19 10:06:39;;;;;;;0.00;0.00;;;;;;;27.24;96.50;101295.22;5068251;28;20017;-50
2023/08/19 10:09:08;;;;;;;0.00;0.00;;;;;;;27.26;95.32;101301.31;5057436;28;20029;-51
2023/08/19 10:11:37;;;;;;;0.00;0.00;;;;;;;27.20;94.21;101304.16;5066905;28;20116;-51
2023/08/19 10:14:04;;;;;;;0.00;0.00;;;;;;;27.11;94.82;101308.00;5051626;28;20451;-51
2023/08/19 10:16:32;;;;;;;0.00;0.00;;;;;;;26.98;94.22;101300.50;5058589;28;20025;-49
2023/08/19 10:18:59;;;;;;;0.00;0.00;;;;;;;26.92;96.28;101298.91;5052502;28;20384;-50
2023/08/19 10:21:26;;;;;;;0.00;0.00;;;;;;;26.89;96.44;101310.44;5055963;28;20028;-50
2023/08/19 10:23:52;;;;;;;0.00;0.00;;;;;;;26.98;95.60;101311.94;5052101;28;20491;-47
2023/08/19 10:26:17;;;;;;;0.00;0.00;;;;;;;27.33;96.80;101309.91;5065495;28;20123;-50
2023/08/19 10:29:07;;;;;;;0.00;0.00;;;;;;;27.45;95.88;101321.94;5056674;28;20028;-51
2023/08/19 10:31:33;;;;;;;0.00;0.00;;;;;;;27.98;93.19;101325.38;5046550;28;20112;-52
2023/08/19 10:33:59;;;;;;;0.00;0.00;;;;;;;27.82;90.66;101319.78;5059283;28;20029;-52
2023/08/19 10:36:30;;;;;;;0.00;0.00;;;;;;;27.82;88.93;101325.06;5051816;28;20031;-51
2023/08/19 10:38:59;;;;;;;0.00;0.00;;;;;;;27.68;89.42;101330.84;5053813;28;20100;-47
2023/08/19 10:41:37;;;;;;;0.00;0.00;;;;;;;27.50;91.10;101330.59;5053727;28;20099;-52
2023/08/19 10:44:07;;;;;;;0.00;0.00;;;;;;;28.05;88.88;101332.25;5053630;28;20039;-51
2023/08/19 10:46:47;;;;;;;0.00;0.00;;;;;;;28.50;88.64;101339.41;5053381;28;20052;-51
2023/08/19 10:49:18;;;;;;;0.00;0.00;;;;;;;28.21;87.10;101356.38;5052487;28;20040;-51
2023/08/19 10:51:57;;;;;;;0.00;0.00;;;;;;;27.84;88.34;101358.53;5053456;28;20479;-52
2023/08/19 10:54:30;;;;;;;0.00;0.00;;;;;;;27.63;89.61;101361.91;5053438;28;20028;-51
2023/08/19 10:57:13;;;;;;;0.00;0.00;;;;;;;27.50;89.77;101372.94;5052849;28;20025;-52
2023/08/19 10:59:43;;;;;;;0.00;0.00;;;;;;;27.06;92.58;101375.19;5053406;28;20424;-50
2023/08/19 11:02:10;;;;;;;0.00;0.00;;;;;;;26.69;90.91;101381.53;5053402;28;20381;-48
2023/08/19 11:04:43;;;;;;;0.00;0.00;;;;;;;26.51;92.69;101391.75;5052567;28;20107;-52
2023/08/19 11:07:09;;;;;;;0.00;0.00;;;;;;;26.34;93.52;101383.44;5053507;28;20025;-51
2023/08/19 11:09:35;;;;;;;0.00;0.00;;;;;;;26.09;93.49;101389.38;5053041;28;20384;-51
2023/08/19 11:12:00;;;;;;;0.00;0.00;;;;;;;26.05;97.45;101393.03;5052359;28;20074;-51
2023/08/19 11:14:26;;;;;;;0.00;0.00;;;;;;;26.11;94.39;101387.59;5053183;28;20021;-52
2023/08/19 11:16:54;;;;;;;0.00;0.00;;;;;;;25.93;94.43;101404.75;5052526;28;20071;-51